createdAt,value
2022-08-28T00:00:20.689Z,43.45
2022-08-28T00:01:20.672Z,44.53
2022-08-28T00:02:20.732Z,43.42
2022-08-28T00:03:20.673Z,43.23
2022-08-28T00:04:20.681Z,45.54
2022-08-28T00:05:20.644Z,43.96
2022-08-28T00:06:20.640Z,43.43
2022-08-28T00:07:20.621Z,44.29
2022-08-28T00:08:20.640Z,43.42
2022-08-28T00:09:20.612Z,43.43
2022-08-28T00:10:20.627Z,46.00
2022-08-28T00:11:20.608Z,44.94
2022-08-28T00:12:20.599Z,42.78
2022-08-28T00:13:20.607Z,43.39
2022-08-28T00:14:20.593Z,43.73
2022-08-28T00:15:20.585Z,43.44
2022-08-28T00:16:20.615Z,42.37
2022-08-28T00:17:20.576Z,43.16
2022-08-28T00:18:20.584Z,46.39
2022-08-28T00:19:20.550Z,43.98
2022-08-28T00:20:20.556Z,42.06
2022-08-28T00:21:20.544Z,41.71
2022-08-28T00:22:20.539Z,45.24
2022-08-28T00:23:20.531Z,42.73
2022-08-28T00:24:20.536Z,43.66
2022-08-28T00:25:20.515Z,43.09
2022-08-28T00:26:20.509Z,43.45
2022-08-28T00:27:20.514Z,42.00
2022-08-28T00:28:23.441Z,44.25
2022-08-28T00:29:20.520Z,42.75
2022-08-28T00:30:20.496Z,42.55
2022-08-28T00:31:20.524Z,43.83
2022-08-28T00:32:20.471Z,41.76
2022-08-28T00:33:20.479Z,43.43
2022-08-28T00:34:20.479Z,44.76
2022-08-28T00:35:21.452Z,45.56
2022-08-28T00:36:20.459Z,44.04
2022-08-28T00:37:20.448Z,43.02
2022-08-28T00:38:20.464Z,44.29
2022-08-28T00:39:20.436Z,43.00
2022-08-28T00:40:28.807Z,44.51
2022-08-28T00:41:24.813Z,42.81
2022-08-28T00:42:21.428Z,42.78
2022-08-28T00:43:20.411Z,41.88
2022-08-28T00:44:20.396Z,43.57
2022-08-28T00:45:20.420Z,43.12
2022-08-28T00:46:20.438Z,42.56
2022-08-28T00:47:20.387Z,43.08
2022-08-28T00:48:20.419Z,42.14
2022-08-28T00:49:20.375Z,44.45
2022-08-28T00:50:20.375Z,46.27
2022-08-28T00:51:20.359Z,43.74
2022-08-28T00:52:20.501Z,43.68
2022-08-28T00:53:20.339Z,43.95
2022-08-28T00:54:20.344Z,43.23
2022-08-28T00:55:20.455Z,44.39
2022-08-28T00:56:21.863Z,42.91
2022-08-28T00:57:20.855Z,44.71
2022-08-28T00:58:21.863Z,42.80
2022-08-28T00:59:20.303Z,43.45
2022-08-28T01:00:20.328Z,42.59
2022-08-28T01:01:20.340Z,43.48
2022-08-28T01:02:20.326Z,42.11
2022-08-28T01:03:20.283Z,43.05
2022-08-28T01:04:20.279Z,42.07
2022-08-28T01:05:20.276Z,41.69
2022-08-28T01:06:20.270Z,42.03
2022-08-28T01:07:20.255Z,42.20
2022-08-28T01:08:20.247Z,44.23
2022-08-28T01:09:20.975Z,43.31
2022-08-28T01:10:20.253Z,43.03
2022-08-28T01:11:20.223Z,43.35
2022-08-28T01:12:20.217Z,43.25
2022-08-28T01:13:20.215Z,43.07
2022-08-28T01:14:20.212Z,42.85
2022-08-28T01:15:20.211Z,42.05
2022-08-28T01:16:20.258Z,42.27
2022-08-28T01:17:20.194Z,42.00
2022-08-28T01:18:20.191Z,44.05
2022-08-28T01:19:20.179Z,44.19
2022-08-28T01:20:20.170Z,43.35
2022-08-28T01:21:20.697Z,44.08
2022-08-28T01:22:20.151Z,42.06
2022-08-28T01:23:20.141Z,43.83
2022-08-28T01:24:20.138Z,43.05
2022-08-28T01:25:20.143Z,43.25
2022-08-28T01:26:20.141Z,42.29
2022-08-28T01:27:20.122Z,42.01
2022-08-28T01:28:20.113Z,42.94
2022-08-28T01:29:20.111Z,43.07
2022-08-28T01:30:20.106Z,42.76
2022-08-28T01:31:20.187Z,42.45
2022-08-28T01:32:20.081Z,42.21
2022-08-28T01:33:20.083Z,43.94
2022-08-28T01:34:21.079Z,42.74
2022-08-28T01:35:20.063Z,41.90
2022-08-28T01:36:20.050Z,42.53
2022-08-28T01:37:20.082Z,43.03
2022-08-28T01:38:20.939Z,43.32
2022-08-28T01:39:21.049Z,42.99
2022-08-28T01:40:20.103Z,42.28
2022-08-28T01:41:20.027Z,42.51
2022-08-28T01:42:20.035Z,42.14
2022-08-28T01:43:20.023Z,42.14
2022-08-28T01:44:20.008Z,43.53
2022-08-28T01:45:20.003Z,43.62
2022-08-28T01:46:20.094Z,43.48
2022-08-28T01:47:19.979Z,42.83
2022-08-28T01:48:19.995Z,43.09
2022-08-28T01:49:19.987Z,43.38
2022-08-28T01:50:19.971Z,44.06
2022-08-28T01:51:24.020Z,44.07
2022-08-28T01:52:24.103Z,42.63
2022-08-28T01:53:20.960Z,42.83
2022-08-28T01:54:19.935Z,42.18
2022-08-28T01:55:21.436Z,42.98
2022-08-28T01:56:19.938Z,42.46
2022-08-28T01:57:19.927Z,43.55
2022-08-28T01:58:19.954Z,43.70
2022-08-28T01:59:19.915Z,43.33
2022-08-28T02:00:19.903Z,42.74
2022-08-28T02:01:19.939Z,42.55
2022-08-28T02:02:19.898Z,43.49
2022-08-28T02:03:19.900Z,42.36
2022-08-28T02:04:19.965Z,42.53
2022-08-28T02:05:20.875Z,45.14
2022-08-28T02:06:19.867Z,43.82
2022-08-28T02:07:19.854Z,42.93
2022-08-28T02:08:19.883Z,43.89
2022-08-28T02:09:19.851Z,44.42
2022-08-28T02:10:19.893Z,42.86
2022-08-28T02:11:19.833Z,42.81
2022-08-28T02:12:19.835Z,42.63
2022-08-28T02:13:19.852Z,43.13
2022-08-28T02:14:19.824Z,44.07
2022-08-28T02:15:19.816Z,43.31
2022-08-28T02:16:19.870Z,43.46
2022-08-28T02:17:19.806Z,43.89
2022-08-28T02:18:19.795Z,42.51
2022-08-28T02:19:19.799Z,42.86
2022-08-28T02:20:19.787Z,42.83
2022-08-28T02:21:19.779Z,43.12
2022-08-28T02:22:19.791Z,44.64
2022-08-28T02:23:19.763Z,43.22
2022-08-28T02:24:19.770Z,44.64
2022-08-28T02:25:19.755Z,42.52
2022-08-28T02:26:19.774Z,42.75
2022-08-28T02:27:19.739Z,42.58
2022-08-28T02:28:19.723Z,43.52
2022-08-28T02:29:19.736Z,42.88
2022-08-28T02:30:19.718Z,43.85
2022-08-28T02:31:19.745Z,42.71
2022-08-28T02:32:19.707Z,43.13
2022-08-28T02:33:19.698Z,43.75
2022-08-28T02:34:19.714Z,44.71
2022-08-28T02:35:19.695Z,43.45
2022-08-28T02:36:19.678Z,42.60
2022-08-28T02:37:19.667Z,44.61
2022-08-28T02:38:19.666Z,43.48
2022-08-28T02:39:19.676Z,44.67
2022-08-28T02:40:19.707Z,42.82
2022-08-28T02:41:19.643Z,42.47
2022-08-28T02:42:19.635Z,43.89
2022-08-28T02:43:19.635Z,43.90
2022-08-28T02:44:19.621Z,42.50
2022-08-28T02:45:19.622Z,43.51
2022-08-28T02:46:19.663Z,44.18
2022-08-28T02:47:19.607Z,43.22
2022-08-28T02:48:19.751Z,42.91
2022-08-28T02:49:19.599Z,42.57
2022-08-28T02:50:19.609Z,43.84
2022-08-28T02:51:19.577Z,43.40
2022-08-28T02:52:19.573Z,43.88
2022-08-28T02:53:19.572Z,43.57
2022-08-28T02:54:19.566Z,44.47
2022-08-28T02:55:19.572Z,43.72
2022-08-28T02:56:19.544Z,44.45
2022-08-28T02:57:19.532Z,46.25
2022-08-28T02:58:19.529Z,44.46
2022-08-28T02:59:19.527Z,43.17
2022-08-28T03:00:19.520Z,44.77
2022-08-28T03:01:19.556Z,43.07
2022-08-28T03:02:19.529Z,43.80
2022-08-28T03:03:19.496Z,43.58
2022-08-28T03:04:19.488Z,43.54
2022-08-28T03:05:20.488Z,43.84
2022-08-28T03:06:19.486Z,44.35
2022-08-28T03:07:19.468Z,43.69
2022-08-28T03:08:19.476Z,44.24
2022-08-28T03:09:19.460Z,43.67
2022-08-28T03:10:19.455Z,43.44
2022-08-28T03:11:19.457Z,43.18
2022-08-28T03:12:19.436Z,43.33
2022-08-28T03:13:26.496Z,43.34
2022-08-28T03:14:20.432Z,43.06
2022-08-28T03:15:19.416Z,43.08
2022-08-28T03:16:19.472Z,43.39
2022-08-28T03:17:19.419Z,43.50
2022-08-28T03:18:19.405Z,44.93
2022-08-28T03:19:19.396Z,45.31
2022-08-28T03:20:19.377Z,44.29
2022-08-28T03:21:19.375Z,43.85
2022-08-28T03:22:19.397Z,43.31
2022-08-28T03:23:19.472Z,44.46
2022-08-28T03:24:19.356Z,44.54
2022-08-28T03:25:19.351Z,43.84
2022-08-28T03:26:19.340Z,43.39
2022-08-28T03:27:19.360Z,45.94
2022-08-28T03:28:19.337Z,45.31
2022-08-28T03:29:19.313Z,43.10
2022-08-28T03:30:20.313Z,44.05
2022-08-28T03:31:19.398Z,43.63
2022-08-28T03:32:19.299Z,43.75
2022-08-28T03:33:19.305Z,44.81
2022-08-28T03:34:19.292Z,44.50
2022-08-28T03:35:19.288Z,45.30
2022-08-28T03:36:19.280Z,45.88
2022-08-28T03:37:19.276Z,43.52
2022-08-28T03:38:19.280Z,45.24
2022-08-28T03:39:19.260Z,43.97
2022-08-28T03:40:19.295Z,44.67
2022-08-28T03:41:19.261Z,45.56
2022-08-28T03:42:19.232Z,44.86
2022-08-28T03:43:19.235Z,44.43
2022-08-28T03:44:19.240Z,45.00
2022-08-28T03:45:19.204Z,45.76
2022-08-28T03:46:19.288Z,44.66
2022-08-28T03:47:19.209Z,45.06
2022-08-28T03:48:19.200Z,45.69
2022-08-28T03:49:19.188Z,43.71
2022-08-28T03:50:19.796Z,45.22
2022-08-28T03:51:19.175Z,44.84
2022-08-28T03:52:19.168Z,45.31
2022-08-28T03:53:19.180Z,45.37
2022-08-28T03:54:19.151Z,45.13
2022-08-28T03:55:19.153Z,44.71
2022-08-28T03:56:19.155Z,45.07
2022-08-28T03:57:19.135Z,44.91
2022-08-28T03:58:19.380Z,44.93
2022-08-28T03:59:19.120Z,43.97
2022-08-28T04:00:19.112Z,44.04
2022-08-28T04:01:19.191Z,45.40
2022-08-28T04:02:19.101Z,45.40
2022-08-28T04:03:19.154Z,45.75
2022-08-28T04:04:19.100Z,44.47
2022-08-28T04:05:19.080Z,45.56
2022-08-28T04:06:19.075Z,44.55
2022-08-28T04:07:19.073Z,44.52
2022-08-28T04:08:19.068Z,45.14
2022-08-28T04:09:19.063Z,44.35
2022-08-28T04:10:19.076Z,44.76
2022-08-28T04:11:19.039Z,44.36
2022-08-28T04:12:19.044Z,44.82
2022-08-28T04:13:19.024Z,44.65
2022-08-28T04:14:19.016Z,45.96
2022-08-28T04:15:19.028Z,45.20
2022-08-28T04:16:19.161Z,44.18
2022-08-28T04:17:19.012Z,44.97
2022-08-28T04:18:19.004Z,46.27
2022-08-28T04:19:18.988Z,45.59
2022-08-28T04:20:19.003Z,45.75
2022-08-28T04:21:19.008Z,44.55
2022-08-28T04:22:18.981Z,45.13
2022-08-28T04:23:18.963Z,45.41
2022-08-28T04:24:18.968Z,47.01
2022-08-28T04:25:18.952Z,46.21
2022-08-28T04:26:18.955Z,45.89
2022-08-28T04:27:18.943Z,44.93
2022-08-28T04:28:18.935Z,45.47
2022-08-28T04:29:18.926Z,47.61
2022-08-28T04:30:18.928Z,47.58
2022-08-28T04:31:18.950Z,46.38
2022-08-28T04:32:19.986Z,45.19
2022-08-28T04:33:18.899Z,45.88
2022-08-28T04:34:18.892Z,44.66
2022-08-28T04:35:18.884Z,46.04
2022-08-28T04:36:18.887Z,46.88
2022-08-28T04:37:18.892Z,45.59
2022-08-28T04:38:18.855Z,45.99
2022-08-28T04:39:18.866Z,46.13
2022-08-28T04:40:18.943Z,47.57
2022-08-28T04:41:18.849Z,46.34
2022-08-28T04:42:18.859Z,44.69
2022-08-28T04:43:18.857Z,45.08
2022-08-28T04:44:18.828Z,45.59
2022-08-28T04:45:18.815Z,46.08
2022-08-28T04:46:18.858Z,45.29
2022-08-28T04:47:18.803Z,45.92
2022-08-28T04:48:19.156Z,46.17
2022-08-28T04:49:18.779Z,47.67
2022-08-28T04:50:19.793Z,46.78
2022-08-28T04:51:18.783Z,47.60
2022-08-28T04:52:18.776Z,48.81
2022-08-28T04:53:18.763Z,47.77
2022-08-28T04:54:18.773Z,45.99
2022-08-28T04:55:18.751Z,46.68
2022-08-28T04:56:19.751Z,46.61
2022-08-28T04:57:18.755Z,46.46
2022-08-28T04:58:18.740Z,45.34
2022-08-28T04:59:19.755Z,47.42
2022-08-28T05:00:18.723Z,45.64
2022-08-28T05:01:18.919Z,47.54
2022-08-28T05:02:18.735Z,47.27
2022-08-28T05:03:18.709Z,48.64
2022-08-28T05:04:18.723Z,47.05
2022-08-28T05:05:18.687Z,46.15
2022-08-28T05:06:18.680Z,45.95
2022-08-28T05:07:18.671Z,47.00
2022-08-28T05:08:18.664Z,45.89
2022-08-28T05:09:18.655Z,46.41
2022-08-28T05:10:18.663Z,46.52
2022-08-28T05:11:32.880Z,46.57
2022-08-28T05:12:19.645Z,46.20
2022-08-28T05:13:18.635Z,45.40
2022-08-28T05:14:18.626Z,45.83
2022-08-28T05:15:18.639Z,46.34
2022-08-28T05:16:18.660Z,46.45
2022-08-28T05:17:18.603Z,45.85
2022-08-28T05:18:18.596Z,47.86
2022-08-28T05:19:18.591Z,47.31
2022-08-28T05:20:18.599Z,45.67
2022-08-28T05:21:18.583Z,46.25
2022-08-28T05:22:18.579Z,46.99
2022-08-28T05:23:18.562Z,45.69
2022-08-28T05:24:18.563Z,47.63
2022-08-28T05:25:18.556Z,46.72
2022-08-28T05:26:18.555Z,46.18
2022-08-28T05:27:18.550Z,46.69
2022-08-28T05:28:18.531Z,46.77
2022-08-28T05:29:18.525Z,46.09
2022-08-28T05:30:18.516Z,45.73
2022-08-28T05:31:18.580Z,45.90
2022-08-28T05:32:18.548Z,46.26
2022-08-28T05:33:18.496Z,47.07
2022-08-28T05:34:18.495Z,46.68
2022-08-28T05:35:18.483Z,47.37
2022-08-28T05:36:18.488Z,47.46
2022-08-28T05:37:19.792Z,46.48
2022-08-28T05:38:19.448Z,48.58
2022-08-28T05:39:18.463Z,47.31
2022-08-28T05:40:18.486Z,45.80
2022-08-28T05:41:18.443Z,46.95
2022-08-28T05:42:18.427Z,45.56
2022-08-28T05:43:18.432Z,46.12
2022-08-28T05:44:18.423Z,46.16
2022-08-28T05:45:18.402Z,45.80
2022-08-28T05:46:18.437Z,45.22
2022-08-28T05:47:18.404Z,45.78
2022-08-28T05:48:18.391Z,44.94
2022-08-28T05:49:18.408Z,45.84
2022-08-28T05:50:18.375Z,45.79
2022-08-28T05:51:18.363Z,44.98
2022-08-28T05:52:18.367Z,47.73
2022-08-28T05:53:18.346Z,46.26
2022-08-28T05:54:18.354Z,46.01
2022-08-28T05:55:18.360Z,46.43
2022-08-28T05:56:18.332Z,44.05
2022-08-28T05:57:18.339Z,45.88
2022-08-28T05:58:18.322Z,44.54
2022-08-28T05:59:18.325Z,46.65
2022-08-28T06:00:18.304Z,44.72
2022-08-28T06:01:18.300Z,44.39
2022-08-28T06:02:18.326Z,44.55
2022-08-28T06:03:18.287Z,45.91
2022-08-28T06:04:18.343Z,46.54
2022-08-28T06:05:18.275Z,43.98
2022-08-28T06:06:18.267Z,45.86
2022-08-28T06:07:18.266Z,46.39
2022-08-28T06:08:18.260Z,46.22
2022-08-28T06:09:18.259Z,46.54
2022-08-28T06:10:18.231Z,46.42
2022-08-28T06:11:18.235Z,45.41
2022-08-28T06:12:18.230Z,43.67
2022-08-28T06:13:18.248Z,46.48
2022-08-28T06:14:18.249Z,45.50
2022-08-28T06:15:18.219Z,47.20
2022-08-28T06:16:18.229Z,43.90
2022-08-28T06:17:23.466Z,45.50
2022-08-28T06:18:19.188Z,46.08
2022-08-28T06:19:18.174Z,45.77
2022-08-28T06:20:18.193Z,44.97
2022-08-28T06:21:18.174Z,45.85
2022-08-28T06:22:18.159Z,44.26
2022-08-28T06:23:23.887Z,47.12
2022-08-28T06:24:19.142Z,47.55
2022-08-28T06:25:18.139Z,45.11
2022-08-28T06:26:18.154Z,45.41
2022-08-28T06:27:18.162Z,45.17
2022-08-28T06:28:18.111Z,44.42
2022-08-28T06:29:18.111Z,44.66
2022-08-28T06:30:18.107Z,46.46
2022-08-28T06:31:24.282Z,45.13
2022-08-28T06:32:20.185Z,45.48
2022-08-28T06:33:18.090Z,48.21
2022-08-28T06:34:18.078Z,42.78
2022-08-28T06:35:18.078Z,44.60
2022-08-28T06:36:18.075Z,46.63
2022-08-28T06:37:18.071Z,44.85
2022-08-28T06:38:18.054Z,46.56
2022-08-28T06:39:18.051Z,44.63
2022-08-28T06:40:18.106Z,41.38
2022-08-28T06:41:18.034Z,43.61
2022-08-28T06:42:18.030Z,41.73
2022-08-28T06:43:18.038Z,42.98
2022-08-28T06:44:18.019Z,44.78
2022-08-28T06:45:18.006Z,44.16
2022-08-28T06:46:18.067Z,42.71
2022-08-28T06:47:17.994Z,42.83
2022-08-28T06:48:18.002Z,44.92
2022-08-28T06:49:17.978Z,44.20
2022-08-28T06:50:17.973Z,42.17
2022-08-28T06:51:17.968Z,44.06
2022-08-28T06:52:17.958Z,44.93
2022-08-28T06:53:17.952Z,43.32
2022-08-28T06:54:22.216Z,44.10
2022-08-28T06:55:19.938Z,44.08
2022-08-28T06:56:26.215Z,42.24
2022-08-28T06:57:18.922Z,45.92
2022-08-28T06:58:17.917Z,41.61
2022-08-28T06:59:17.928Z,44.69
2022-08-28T07:00:17.950Z,43.05
2022-08-28T07:01:17.955Z,46.03
2022-08-28T07:02:17.970Z,45.48
2022-08-28T07:03:17.886Z,42.70
2022-08-28T07:04:17.883Z,46.29
2022-08-28T07:05:17.883Z,45.59
2022-08-28T07:06:17.870Z,43.47
2022-08-28T07:07:31.535Z,43.16
2022-08-28T07:08:18.858Z,45.09
2022-08-28T07:09:17.847Z,42.88
2022-08-28T07:10:17.866Z,44.83
2022-08-28T07:11:17.839Z,43.79
2022-08-28T07:12:17.826Z,45.41
2022-08-28T07:13:17.815Z,45.53
2022-08-28T07:14:17.875Z,46.71
2022-08-28T07:15:17.815Z,43.47
2022-08-28T07:16:17.866Z,45.39
2022-08-28T07:17:17.802Z,42.78
2022-08-28T07:18:17.794Z,45.20
2022-08-28T07:19:17.789Z,54.56
2022-08-28T07:20:17.825Z,46.05
2022-08-28T07:21:17.785Z,46.66
2022-08-28T07:22:17.762Z,44.29
2022-08-28T07:23:17.754Z,44.67
2022-08-28T07:24:17.762Z,45.33
2022-08-28T07:25:17.738Z,48.47
2022-08-28T07:26:17.741Z,46.69
2022-08-28T07:27:19.147Z,47.03
2022-08-28T07:28:18.725Z,46.60
2022-08-28T07:29:17.717Z,46.17
2022-08-28T07:30:17.714Z,46.33
2022-08-28T07:31:17.760Z,48.63
2022-08-28T07:32:17.727Z,47.00
2022-08-28T07:33:17.686Z,48.15
2022-08-28T07:34:18.691Z,46.28
2022-08-28T07:35:17.688Z,47.08
2022-08-28T07:36:29.189Z,46.26
2022-08-28T07:37:18.681Z,41.87
2022-08-28T07:38:17.739Z,48.21
2022-08-28T07:39:17.653Z,45.01
2022-08-28T07:40:17.695Z,49.85
2022-08-28T07:41:17.647Z,48.94
2022-08-28T07:42:17.635Z,47.92
2022-08-28T07:43:17.651Z,48.83
2022-08-28T07:44:17.615Z,47.30
2022-08-28T07:45:17.720Z,46.93
2022-08-28T07:46:17.616Z,44.97
2022-08-28T07:47:17.631Z,46.69
2022-08-28T07:48:18.020Z,45.48
2022-08-28T07:49:17.583Z,45.09
2022-08-28T07:50:17.607Z,43.74
2022-08-28T07:51:17.580Z,43.14
2022-08-28T07:52:17.569Z,44.83
2022-08-28T07:53:17.568Z,44.16
2022-08-28T07:54:18.135Z,44.89
2022-08-28T07:55:17.547Z,43.00
2022-08-28T07:56:17.555Z,51.14
2022-08-28T07:57:17.536Z,53.53
2022-08-28T07:58:17.528Z,56.44
2022-08-28T07:59:17.563Z,53.55
2022-08-28T08:00:17.515Z,50.08
2022-08-28T08:01:17.566Z,51.53
2022-08-28T08:02:17.510Z,43.00
2022-08-28T08:03:17.516Z,45.13
2022-08-28T08:04:17.508Z,42.63
2022-08-28T08:05:17.492Z,43.38
2022-08-28T08:06:17.482Z,43.91
2022-08-28T08:07:17.490Z,42.29
2022-08-28T08:08:17.502Z,42.67
2022-08-28T08:09:17.466Z,45.32
2022-08-28T08:10:20.563Z,41.68
2022-08-28T08:11:17.463Z,42.27
2022-08-28T08:12:17.448Z,44.17
2022-08-28T08:13:17.449Z,43.25
2022-08-28T08:14:17.438Z,44.85
2022-08-28T08:15:17.442Z,44.42
2022-08-28T08:16:17.471Z,47.12
2022-08-28T08:17:17.422Z,43.13
2022-08-28T08:18:17.407Z,42.38
2022-08-28T08:19:17.411Z,43.55
2022-08-28T08:20:17.403Z,42.91
2022-08-28T08:21:17.415Z,45.19
2022-08-28T08:22:17.386Z,42.31
2022-08-28T08:23:17.383Z,42.53
2022-08-28T08:24:19.730Z,43.01
2022-08-28T08:25:17.365Z,44.02
2022-08-28T08:26:17.378Z,44.38
2022-08-28T08:27:17.350Z,45.73
2022-08-28T08:28:17.342Z,46.72
2022-08-28T08:29:17.325Z,44.64
2022-08-28T08:30:17.326Z,46.13
2022-08-28T08:31:17.383Z,46.72
2022-08-28T08:32:17.334Z,42.89
2022-08-28T08:33:17.315Z,45.61
2022-08-28T08:34:17.303Z,44.86
2022-08-28T08:35:17.293Z,45.20
2022-08-28T08:36:17.293Z,44.48
2022-08-28T08:37:17.313Z,44.00
2022-08-28T08:38:17.282Z,42.74
2022-08-28T08:39:17.269Z,44.82
2022-08-28T08:40:17.299Z,44.77
2022-08-28T08:41:17.274Z,48.54
2022-08-28T08:42:17.270Z,46.91
2022-08-28T08:43:17.342Z,45.81
2022-08-28T08:44:17.262Z,43.77
2022-08-28T08:45:17.253Z,40.83
2022-08-28T08:46:17.287Z,46.05
2022-08-28T08:47:17.230Z,45.24
2022-08-28T08:48:17.227Z,46.41
2022-08-28T08:49:17.218Z,43.54
2022-08-28T08:50:17.221Z,44.24
2022-08-28T08:51:17.210Z,44.13
2022-08-28T08:52:17.207Z,44.15
2022-08-28T08:53:17.186Z,43.61
2022-08-28T08:54:17.190Z,45.54
2022-08-28T08:55:17.241Z,43.59
2022-08-28T08:56:17.170Z,44.21
2022-08-28T08:57:17.167Z,44.00
2022-08-28T08:58:17.199Z,43.02
2022-08-28T08:59:17.151Z,42.37
2022-08-28T09:00:17.231Z,43.14
2022-08-28T09:01:17.285Z,41.41
2022-08-28T09:02:17.141Z,47.13
2022-08-28T09:03:17.223Z,50.70
2022-08-28T09:04:21.495Z,44.92
2022-08-28T09:05:17.133Z,43.37
2022-08-28T09:06:17.150Z,42.88
2022-08-28T09:07:17.117Z,43.72
2022-08-28T09:08:17.097Z,42.05
2022-08-28T09:09:17.105Z,40.52
2022-08-28T09:10:17.102Z,47.25
2022-08-28T09:11:17.097Z,45.22
2022-08-28T09:12:17.097Z,47.19
2022-08-28T09:13:17.086Z,47.25
2022-08-28T09:14:17.091Z,44.76
2022-08-28T09:15:17.070Z,46.42
2022-08-28T09:16:17.124Z,44.81
2022-08-28T09:17:17.072Z,48.39
2022-08-28T09:18:17.049Z,48.59
2022-08-28T09:19:17.048Z,47.45
2022-08-28T09:20:17.040Z,46.02
2022-08-28T09:21:17.033Z,46.84
2022-08-28T09:22:17.119Z,51.17
2022-08-28T09:23:17.045Z,48.38
2022-08-28T09:24:17.017Z,47.98
2022-08-28T09:25:17.073Z,49.36
2022-08-28T09:26:17.060Z,48.58
2022-08-28T09:27:16.998Z,45.14
2022-08-28T09:28:16.990Z,46.48
2022-08-28T09:29:16.979Z,45.36
2022-08-28T09:30:16.980Z,47.32
2022-08-28T09:31:20.166Z,47.37
2022-08-28T09:32:16.969Z,46.46
2022-08-28T09:33:16.957Z,49.19
2022-08-28T09:34:16.952Z,50.49
2022-08-28T09:35:16.936Z,50.24
2022-08-28T09:36:16.937Z,51.71
2022-08-28T09:37:16.952Z,49.91
2022-08-28T09:38:16.977Z,50.81
2022-08-28T09:39:16.919Z,51.28
2022-08-28T09:40:16.980Z,48.84
2022-08-28T09:41:16.899Z,47.11
2022-08-28T09:42:16.907Z,49.31
2022-08-28T09:43:16.920Z,47.22
2022-08-28T09:44:16.890Z,47.28
2022-08-28T09:45:16.890Z,51.09
2022-08-28T09:46:17.017Z,48.27
2022-08-28T09:47:16.871Z,47.27
2022-08-28T09:48:16.895Z,48.10
2022-08-28T09:49:16.879Z,47.15
2022-08-28T09:50:16.867Z,46.46
2022-08-28T09:51:16.856Z,46.60
2022-08-28T09:52:18.186Z,47.62
2022-08-28T09:53:16.946Z,47.42
2022-08-28T09:54:16.839Z,48.88
2022-08-28T09:55:16.879Z,45.48
2022-08-28T09:56:16.825Z,43.84
2022-08-28T09:57:16.818Z,45.18
2022-08-28T09:58:16.862Z,46.93
2022-08-28T09:59:16.819Z,45.28
2022-08-28T10:00:16.803Z,43.60
2022-08-28T10:01:16.913Z,45.09
2022-08-28T10:02:16.799Z,44.62
2022-08-28T10:03:16.783Z,47.27
2022-08-28T10:04:16.948Z,48.02
2022-08-28T10:05:16.783Z,48.71
2022-08-28T10:06:16.840Z,46.96
2022-08-28T10:07:16.767Z,47.80
2022-08-28T10:08:16.767Z,48.19
2022-08-28T10:09:16.759Z,46.97
2022-08-28T10:10:17.335Z,49.04
2022-08-28T10:11:16.742Z,47.25
2022-08-28T10:12:16.738Z,46.28
2022-08-28T10:13:16.754Z,48.09
2022-08-28T10:14:16.753Z,47.62
2022-08-28T10:15:16.715Z,48.61
2022-08-28T10:16:16.795Z,47.77
2022-08-28T10:17:16.760Z,48.28
2022-08-28T10:18:16.709Z,47.63
2022-08-28T10:19:16.697Z,48.87
2022-08-28T10:20:16.705Z,47.79
2022-08-28T10:21:16.706Z,45.09
2022-08-28T10:22:16.690Z,43.34
2022-08-28T10:23:17.797Z,44.97
2022-08-28T10:24:26.037Z,44.62
2022-08-28T10:25:17.680Z,45.90
2022-08-28T10:26:16.659Z,46.44
2022-08-28T10:27:16.650Z,45.47
2022-08-28T10:28:16.646Z,44.42
2022-08-28T10:29:16.646Z,45.01
2022-08-28T10:30:16.650Z,45.77
2022-08-28T10:31:16.828Z,46.00
2022-08-28T10:32:16.620Z,49.50
2022-08-28T10:33:16.622Z,48.18
2022-08-28T10:34:16.618Z,48.37
2022-08-28T10:35:16.616Z,47.99
2022-08-28T10:36:33.854Z,46.07
2022-08-28T10:37:17.602Z,46.65
2022-08-28T10:38:16.610Z,45.12
2022-08-28T10:39:16.594Z,45.54
2022-08-28T10:40:16.620Z,44.09
2022-08-28T10:41:16.599Z,44.44
2022-08-28T10:42:16.606Z,44.07
2022-08-28T10:43:16.574Z,46.12
2022-08-28T10:44:16.582Z,50.49
2022-08-28T10:45:16.573Z,49.72
2022-08-28T10:46:16.633Z,53.55
2022-08-28T10:47:16.586Z,47.67
2022-08-28T10:48:16.583Z,47.23
2022-08-28T10:49:16.554Z,46.99
2022-08-28T10:50:16.556Z,51.38
2022-08-28T10:51:16.546Z,46.75
2022-08-28T10:52:16.538Z,49.37
2022-08-28T10:53:16.554Z,49.32
2022-08-28T10:54:16.533Z,48.79
2022-08-28T10:55:16.523Z,47.20
2022-08-28T10:56:16.544Z,47.79
2022-08-28T10:57:16.515Z,44.43
2022-08-28T10:58:24.424Z,45.05
2022-08-28T10:59:17.514Z,45.72
2022-08-28T11:00:16.505Z,46.90
2022-08-28T11:01:16.554Z,44.54
2022-08-28T11:02:16.547Z,46.36
2022-08-28T11:03:33.462Z,45.81
2022-08-28T11:04:24.909Z,42.08
2022-08-28T11:05:18.481Z,44.46
2022-08-28T11:06:16.477Z,44.96
2022-08-28T11:07:16.462Z,45.25
2022-08-28T11:08:16.474Z,49.51
2022-08-28T11:09:16.478Z,46.72
2022-08-28T11:10:16.449Z,46.44
2022-08-28T11:11:16.446Z,49.23
2022-08-28T11:12:16.459Z,48.36
2022-08-28T11:13:16.462Z,49.79
2022-08-28T11:14:16.458Z,48.49
2022-08-28T11:15:16.526Z,47.32
2022-08-28T11:16:16.491Z,45.86
2022-08-28T11:17:16.429Z,47.47
2022-08-28T11:18:16.435Z,46.66
2022-08-28T11:19:16.421Z,50.26
2022-08-28T11:20:16.409Z,45.17
2022-08-28T11:21:17.409Z,45.60
2022-08-28T11:22:16.422Z,47.65
2022-08-28T11:23:17.954Z,46.58
2022-08-28T11:24:16.397Z,47.45
2022-08-28T11:25:16.409Z,48.61
2022-08-28T11:26:16.393Z,49.10
2022-08-28T11:27:16.390Z,49.27
2022-08-28T11:28:16.378Z,46.95
2022-08-28T11:29:16.382Z,46.52
2022-08-28T11:30:16.381Z,47.43
2022-08-28T11:31:25.679Z,45.13
2022-08-28T11:32:17.357Z,46.49
2022-08-28T11:33:16.365Z,49.02
2022-08-28T11:34:16.350Z,48.19
2022-08-28T11:35:16.349Z,46.39
2022-08-28T11:36:16.357Z,49.06
2022-08-28T11:37:16.341Z,52.03
2022-08-28T11:38:19.596Z,50.28
2022-08-28T11:39:17.341Z,49.14
2022-08-28T11:40:16.382Z,49.34
2022-08-28T11:41:16.492Z,46.51
2022-08-28T11:42:16.315Z,44.15
2022-08-28T11:43:16.974Z,48.91
2022-08-28T11:44:16.305Z,45.79
2022-08-28T11:45:16.298Z,47.41
2022-08-28T11:46:18.218Z,47.50
2022-08-28T11:47:16.293Z,48.01
2022-08-28T11:48:16.290Z,46.75
2022-08-28T11:49:16.286Z,48.34
2022-08-28T11:50:16.269Z,48.05
2022-08-28T11:51:16.289Z,47.85
2022-08-28T11:52:16.261Z,49.68
2022-08-28T11:53:16.257Z,50.14
2022-08-28T11:54:16.254Z,47.69
2022-08-28T11:55:16.261Z,46.67
2022-08-28T11:56:21.771Z,48.44
2022-08-28T11:57:17.261Z,49.18
2022-08-28T11:58:16.266Z,50.62
2022-08-28T11:59:16.225Z,48.45
2022-08-28T12:00:16.238Z,47.08
2022-08-28T12:01:16.221Z,44.21
2022-08-28T12:02:16.278Z,46.71
2022-08-28T12:03:16.214Z,46.78
2022-08-28T12:04:16.220Z,46.54
2022-08-28T12:05:16.211Z,49.02
2022-08-28T12:06:16.213Z,48.92
2022-08-28T12:07:16.265Z,47.79
2022-08-28T12:08:16.198Z,45.92
2022-08-28T12:09:16.182Z,46.08
2022-08-28T12:10:16.178Z,44.51
2022-08-28T12:11:16.173Z,48.73
2022-08-28T12:12:16.177Z,45.77
2022-08-28T12:13:16.181Z,46.60
2022-08-28T12:14:16.158Z,48.93
2022-08-28T12:15:16.156Z,48.63
2022-08-28T12:16:16.256Z,47.22
2022-08-28T12:17:16.142Z,47.49
2022-08-28T12:18:16.186Z,49.75
2022-08-28T12:19:16.145Z,49.10
2022-08-28T12:20:16.141Z,50.24
2022-08-28T12:21:16.123Z,51.13
2022-08-28T12:22:16.121Z,52.29
2022-08-28T12:23:16.121Z,49.27
2022-08-28T12:24:16.137Z,48.40
2022-08-28T12:25:16.109Z,49.14
2022-08-28T12:26:16.101Z,54.56
2022-08-28T12:27:16.109Z,49.84
2022-08-28T12:28:16.090Z,52.02
2022-08-28T12:29:16.121Z,49.26
2022-08-28T12:30:16.087Z,47.35
2022-08-28T12:31:16.124Z,47.79
2022-08-28T12:32:16.071Z,50.30
2022-08-28T12:33:16.071Z,50.34
2022-08-28T12:34:16.065Z,48.88
2022-08-28T12:35:16.761Z,48.98
2022-08-28T12:36:17.058Z,47.37
2022-08-28T12:37:16.041Z,48.67
2022-08-28T12:38:16.041Z,47.46
2022-08-28T12:39:16.041Z,50.77
2022-08-28T12:40:16.112Z,47.96
2022-08-28T12:41:16.033Z,51.06
2022-08-28T12:42:16.021Z,48.43
2022-08-28T12:43:16.017Z,48.10
2022-08-28T12:44:16.017Z,50.04
2022-08-28T12:45:16.025Z,45.03
2022-08-28T12:46:19.087Z,49.68
2022-08-28T12:47:16.005Z,47.74
2022-08-28T12:48:15.997Z,49.34
2022-08-28T12:49:16.670Z,51.65
2022-08-28T12:50:16.018Z,50.87
2022-08-28T12:51:15.995Z,51.67
2022-08-28T12:52:17.050Z,47.88